createdAt,value
2023-03-22T00:01:25.831Z,20.40
2023-03-22T00:03:53.546Z,20.50
2023-03-22T00:06:22.549Z,20.50
2023-03-22T00:08:51.329Z,20.50
2023-03-22T00:11:19.362Z,20.50
2023-03-22T00:13:47.120Z,20.40
2023-03-22T00:16:15.048Z,20.40
2023-03-22T00:18:42.750Z,20.50
2023-03-22T00:21:12.154Z,20.40
2023-03-22T00:23:41.412Z,20.40
2023-03-22T00:26:09.117Z,20.40
2023-03-22T00:28:37.386Z,20.30
2023-03-22T00:31:05.307Z,20.40
2023-03-22T00:33:33.749Z,20.30
2023-03-22T00:36:02.550Z,20.40
2023-03-22T00:38:42.577Z,20.40
2023-03-22T00:41:13.507Z,20.40
2023-03-22T00:43:41.228Z,20.40
2023-03-22T00:46:09.104Z,20.40
2023-03-22T00:48:36.821Z,20.40
2023-03-22T00:51:04.802Z,20.40
2023-03-22T00:53:35.119Z,20.40
2023-03-22T00:56:02.781Z,20.40
2023-03-22T00:58:38.425Z,20.40
2023-03-22T01:01:07.330Z,20.40
2023-03-22T01:03:35.189Z,20.30
2023-03-22T01:06:03.503Z,20.40
2023-03-22T01:08:38.745Z,20.40
2023-03-22T01:11:07.226Z,20.30
2023-03-22T01:13:34.915Z,20.30
2023-03-22T01:16:03.974Z,20.30
2023-03-22T01:18:31.860Z,20.30
2023-03-22T01:21:00.242Z,20.30
2023-03-22T01:23:27.969Z,20.30
2023-03-22T01:25:55.684Z,20.30
2023-03-22T01:28:26.469Z,20.30
2023-03-22T01:30:55.023Z,20.30
2023-03-22T01:33:24.016Z,20.30
2023-03-22T01:35:52.887Z,20.30
2023-03-22T01:38:21.585Z,20.30
2023-03-22T01:40:54.452Z,20.30
2023-03-22T01:43:22.525Z,20.30
2023-03-22T01:45:50.714Z,20.30
2023-03-22T01:48:21.951Z,20.20
2023-03-22T01:50:55.996Z,20.30
2023-03-22T01:53:25.187Z,20.30
2023-03-22T01:55:54.464Z,20.30
2023-03-22T01:58:27.651Z,20.30
2023-03-22T02:00:59.506Z,20.30
2023-03-22T02:04:01.930Z,20.30
2023-03-22T02:06:32.331Z,20.30
2023-03-22T02:09:06.410Z,20.30
2023-03-22T02:11:35.383Z,20.30
2023-03-22T02:14:23.515Z,20.30
2023-03-22T02:17:20.835Z,20.40
2023-03-22T02:20:29.069Z,20.40
2023-03-22T02:23:19.385Z,20.40
2023-03-22T02:26:06.035Z,20.40
2023-03-22T02:28:38.773Z,20.40
2023-03-22T02:31:25.644Z,20.40
2023-03-22T02:34:04.161Z,20.40
2023-03-22T02:36:40.115Z,20.40
2023-03-22T02:39:30.369Z,20.40
2023-03-22T02:42:11.862Z,20.40
2023-03-22T02:44:42.390Z,20.40
2023-03-22T02:47:16.653Z,20.40
2023-03-22T02:49:47.743Z,20.40
2023-03-22T02:52:17.740Z,20.40
2023-03-22T02:54:48.871Z,20.40
2023-03-22T02:57:17.675Z,20.40
2023-03-22T02:59:45.854Z,20.30
2023-03-22T03:02:14.334Z,20.30
2023-03-22T03:04:44.510Z,20.30
2023-03-22T03:07:14.222Z,20.30
2023-03-22T03:09:42.327Z,20.40
2023-03-22T03:12:14.915Z,20.30
2023-03-22T03:14:43.053Z,20.30
2023-03-22T03:17:21.301Z,20.30
2023-03-22T03:19:54.412Z,20.30
2023-03-22T03:22:31.008Z,20.30
2023-03-22T03:25:00.930Z,20.30
2023-03-22T03:27:33.110Z,20.30
2023-03-22T03:30:03.009Z,20.30
2023-03-22T03:32:35.257Z,20.30
2023-03-22T03:35:10.128Z,20.30
2023-03-22T03:37:39.109Z,20.30
2023-03-22T03:40:11.291Z,20.30
2023-03-22T03:42:42.339Z,20.30
2023-03-22T03:45:10.935Z,20.30
2023-03-22T03:47:38.978Z,20.30
2023-03-22T03:50:07.669Z,20.30
2023-03-22T03:52:35.608Z,20.30
2023-03-22T03:55:03.272Z,20.30
2023-03-22T03:57:33.884Z,20.30
2023-03-22T04:00:03.880Z,20.40
2023-03-22T04:02:49.523Z,20.40
2023-03-22T04:05:37.089Z,20.30
2023-03-22T04:08:04.820Z,20.40
2023-03-22T04:10:33.426Z,20.30
2023-03-22T04:13:01.154Z,20.40
2023-03-22T04:15:30.305Z,20.40
2023-03-22T04:18:01.581Z,20.40
2023-03-22T04:20:31.519Z,20.30
2023-03-22T04:23:00.131Z,20.30
2023-03-22T04:25:29.989Z,20.30
2023-03-22T04:28:04.176Z,20.30
2023-03-22T04:30:36.039Z,20.30
2023-03-22T04:33:16.041Z,20.30
2023-03-22T04:36:05.600Z,20.30
2023-03-22T04:38:40.276Z,20.30
2023-03-22T04:41:11.386Z,20.30
2023-03-22T04:43:46.937Z,20.30
2023-03-22T04:46:17.691Z,20.30
2023-03-22T04:48:51.200Z,20.30
2023-03-22T04:51:19.558Z,20.30
2023-03-22T04:54:10.388Z,20.30
2023-03-22T04:56:41.636Z,20.30
2023-03-22T04:59:10.746Z,20.30
2023-03-22T05:01:40.741Z,20.30
2023-03-22T05:04:12.652Z,20.30
2023-03-22T05:06:41.624Z,20.30
2023-03-22T05:09:16.535Z,20.30
2023-03-22T05:11:44.501Z,20.30
2023-03-22T05:14:32.014Z,20.30
2023-03-22T05:17:01.080Z,20.30
2023-03-22T05:19:29.076Z,20.30
2023-03-22T05:21:58.437Z,20.30
2023-03-22T05:24:38.766Z,20.30
2023-03-22T05:27:07.254Z,20.30
2023-03-22T05:29:36.715Z,20.30
2023-03-22T05:32:12.611Z,20.30
2023-03-22T05:34:41.768Z,20.30
2023-03-22T05:37:26.099Z,20.30
2023-03-22T05:39:57.907Z,20.30
2023-03-22T05:42:36.540Z,20.30
2023-03-22T05:45:14.003Z,20.30
2023-03-22T05:47:44.521Z,20.30
2023-03-22T05:50:16.226Z,20.30
2023-03-22T05:52:44.605Z,20.30
2023-03-22T05:55:23.110Z,20.30
2023-03-22T05:57:56.477Z,20.30
2023-03-22T06:00:25.777Z,20.30
2023-03-22T06:03:18.304Z,20.40
2023-03-22T06:05:54.678Z,20.30
2023-03-22T06:08:29.636Z,20.30
2023-03-22T06:10:58.683Z,20.40
2023-03-22T06:13:27.486Z,20.40
2023-03-22T06:15:55.294Z,20.40
2023-03-22T06:18:27.438Z,20.40
2023-03-22T06:21:03.104Z,20.40
2023-03-22T06:23:30.877Z,20.40
2023-03-22T06:25:58.673Z,20.40
2023-03-22T06:28:29.717Z,20.40
2023-03-22T06:30:57.826Z,20.40
2023-03-22T06:33:56.503Z,20.40
2023-03-22T06:36:33.056Z,20.40
2023-03-22T06:39:06.186Z,20.40
2023-03-22T06:41:34.179Z,20.30
2023-03-22T06:44:02.518Z,20.30
2023-03-22T06:46:44.112Z,20.30
2023-03-22T06:49:22.761Z,20.30
2023-03-22T06:51:52.831Z,20.30
2023-03-22T06:54:21.273Z,20.30
2023-03-22T06:56:49.006Z,20.30
2023-03-22T06:59:17.371Z,20.30
2023-03-22T07:01:45.235Z,20.40
2023-03-22T07:04:13.483Z,20.30
2023-03-22T07:06:43.617Z,20.30
2023-03-22T07:09:11.652Z,20.40
2023-03-22T07:11:39.595Z,20.30
2023-03-22T07:14:07.503Z,20.40
2023-03-22T07:16:54.624Z,20.30
2023-03-22T07:19:23.824Z,20.30
2023-03-22T07:21:53.057Z,20.30
2023-03-22T07:24:20.897Z,20.40
2023-03-22T07:26:48.659Z,20.30
2023-03-22T07:29:21.388Z,20.30
2023-03-22T07:31:49.511Z,20.30
2023-03-22T07:34:23.877Z,20.30
2023-03-22T07:37:05.951Z,20.30
2023-03-22T07:39:33.910Z,20.30
2023-03-22T07:42:01.698Z,20.30
2023-03-22T07:44:56.077Z,20.30
2023-03-22T07:47:39.624Z,20.30
2023-03-22T07:50:23.273Z,20.30
2023-03-22T07:52:57.021Z,20.30
2023-03-22T07:55:24.741Z,20.30
2023-03-22T07:57:53.604Z,20.30
2023-03-22T08:00:22.324Z,20.30
2023-03-22T08:03:05.801Z,20.30
2023-03-22T08:05:52.634Z,20.30
2023-03-22T08:08:22.369Z,20.30
2023-03-22T08:10:51.266Z,20.30
2023-03-22T08:13:19.245Z,20.30
2023-03-22T08:15:46.991Z,20.30
2023-03-22T08:18:15.463Z,20.30
2023-03-22T08:20:45.268Z,20.40
2023-03-22T08:23:17.917Z,20.30
2023-03-22T08:26:00.391Z,20.20
2023-03-22T08:28:28.277Z,20.10
2023-03-22T08:30:56.011Z,20.20
2023-03-22T08:33:23.785Z,20.20
2023-03-22T08:35:51.875Z,20.20
2023-03-22T08:38:20.483Z,20.20
2023-03-22T08:40:52.423Z,20.20
2023-03-22T08:43:26.042Z,20.20
2023-03-22T08:45:53.885Z,20.30
2023-03-22T08:48:22.213Z,20.30
2023-03-22T08:51:14.183Z,20.40
2023-03-22T08:53:53.840Z,20.40
2023-03-22T08:56:50.557Z,20.50
2023-03-22T08:59:56.643Z,20.50
2023-03-22T09:02:36.314Z,20.60
2023-03-22T09:05:04.728Z,20.60
2023-03-22T09:07:33.319Z,20.60
2023-03-22T09:10:13.418Z,20.60
2023-03-22T09:12:44.125Z,20.60
2023-03-22T09:15:13.384Z,20.60
2023-03-22T09:17:45.009Z,20.60
2023-03-22T09:20:13.385Z,20.70
2023-03-22T09:22:44.041Z,20.70
2023-03-22T09:25:14.513Z,20.70
2023-03-22T09:27:44.928Z,20.70
2023-03-22T09:30:14.692Z,20.70
2023-03-22T09:32:42.861Z,20.70
2023-03-22T09:35:13.020Z,20.70
2023-03-22T09:37:53.101Z,20.70
2023-03-22T09:40:20.995Z,20.70
2023-03-22T09:42:49.963Z,20.70
2023-03-22T09:45:20.219Z,20.70
2023-03-22T09:47:49.529Z,20.70
2023-03-22T09:50:19.719Z,20.70
2023-03-22T09:52:47.581Z,20.70
2023-03-22T09:55:19.877Z,20.70
2023-03-22T09:57:48.446Z,20.80
2023-03-22T10:00:20.800Z,20.70
2023-03-22T10:02:54.130Z,20.70
2023-03-22T10:05:27.901Z,20.70
2023-03-22T10:08:07.258Z,20.70
2023-03-22T10:10:35.011Z,20.70
2023-03-22T10:13:07.443Z,20.70
2023-03-22T10:15:39.075Z,20.70
2023-03-22T10:18:09.576Z,20.70
2023-03-22T10:20:39.840Z,20.70
2023-03-22T10:23:10.045Z,20.70
2023-03-22T10:25:39.152Z,20.70
2023-03-22T10:28:16.308Z,20.70
2023-03-22T10:30:45.571Z,20.60
2023-03-22T10:33:14.647Z,20.60
2023-03-22T10:35:42.830Z,20.50
2023-03-22T10:38:14.455Z,20.50
2023-03-22T10:40:42.175Z,20.50
2023-03-22T10:43:13.486Z,20.60
2023-03-22T10:45:41.387Z,20.50
2023-03-22T10:48:14.403Z,20.50
2023-03-22T10:50:44.170Z,20.60
2023-03-22T10:53:13.769Z,20.60
2023-03-22T10:55:42.362Z,20.60
2023-03-22T10:58:13.213Z,20.50
2023-03-22T11:00:45.585Z,20.60
2023-03-22T11:03:25.264Z,20.60
2023-03-22T11:05:59.662Z,20.60
2023-03-22T11:08:27.390Z,20.60
2023-03-22T11:10:59.196Z,20.50
2023-03-22T11:13:26.921Z,20.50
2023-03-22T11:15:56.538Z,20.60
2023-03-22T11:18:25.652Z,20.60
2023-03-22T11:20:55.437Z,20.60
2023-03-22T11:23:23.135Z,20.70
2023-03-22T11:25:51.177Z,20.60
2023-03-22T11:28:19.841Z,20.70
2023-03-22T11:31:02.770Z,20.70
2023-03-22T11:33:31.840Z,20.70
2023-03-22T11:36:00.373Z,20.70
2023-03-22T11:38:32.813Z,20.70
2023-03-22T11:41:01.306Z,20.70
2023-03-22T11:43:32.705Z,20.70
2023-03-22T11:46:00.797Z,20.70
2023-03-22T11:48:29.483Z,20.70
2023-03-22T11:51:00.768Z,20.70
2023-03-22T11:53:28.583Z,20.60
2023-03-22T11:55:57.458Z,20.60
2023-03-22T11:58:29.021Z,20.60
2023-03-22T12:00:58.257Z,20.70
2023-03-22T12:03:27.452Z,20.70
2023-03-22T12:05:56.314Z,20.70
2023-03-22T12:08:28.627Z,20.70
2023-03-22T12:10:58.736Z,20.60
2023-03-22T12:13:28.686Z,20.60
2023-03-22T12:15:57.588Z,20.70
2023-03-22T12:18:27.440Z,20.70
2023-03-22T12:20:56.273Z,20.70
2023-03-22T12:23:26.293Z,20.70
2023-03-22T12:25:56.087Z,20.80
2023-03-22T12:28:26.245Z,20.80
2023-03-22T12:30:56.076Z,20.80
2023-03-22T12:33:25.345Z,20.80
2023-03-22T12:35:56.482Z,20.70
2023-03-22T12:38:29.584Z,20.70
2023-03-22T12:40:59.035Z,20.80
2023-03-22T12:43:37.407Z,20.80
2023-03-22T12:46:06.331Z,20.70
2023-03-22T12:48:37.334Z,20.70
2023-03-22T12:51:06.540Z,20.80
2023-03-22T12:53:42.224Z,20.70
2023-03-22T12:56:11.819Z,20.70
2023-03-22T12:58:39.580Z,20.70
2023-03-22T13:01:18.387Z,20.70
2023-03-22T13:03:47.630Z,20.70
2023-03-22T13:06:30.984Z,20.70
2023-03-22T13:09:17.067Z,20.60
2023-03-22T13:11:45.900Z,20.70
2023-03-22T13:14:18.156Z,20.70
2023-03-22T13:16:51.203Z,20.70
2023-03-22T13:19:31.399Z,20.70
2023-03-22T13:22:16.064Z,20.70
2023-03-22T13:27:41.684Z,20.80
2023-03-22T13:30:16.595Z,20.80
2023-03-22T13:32:52.586Z,20.80
2023-03-22T13:35:27.794Z,20.80
2023-03-22T13:37:59.096Z,20.90
2023-03-22T13:40:34.666Z,20.90
2023-03-22T13:43:22.003Z,20.90
2023-03-22T13:46:07.768Z,20.90
2023-03-22T13:48:44.600Z,20.90
2023-03-22T13:51:14.390Z,20.90
2023-03-22T13:53:43.695Z,21.00
2023-03-22T13:56:13.300Z,20.90
2023-03-22T13:58:52.228Z,20.90
2023-03-22T14:01:25.848Z,20.90
2023-03-22T14:03:53.712Z,21.00
2023-03-22T14:06:25.622Z,21.00
2023-03-22T14:08:55.574Z,21.00
2023-03-22T14:11:26.434Z,21.00
2023-03-22T14:13:58.252Z,21.10
2023-03-22T14:16:34.593Z,21.10
2023-03-22T14:19:02.594Z,21.10
2023-03-22T14:21:34.473Z,21.10
